Hong Kong International Airport
VHHH : now visible

Airfield :











YOU CAN JOIN US ON...

 
LOGIN :

Register | Disclaimer

   EN    FR    IT 

 









Legend :    VFR   Marginal VFR   IFR   Intensive IFR   Very Intensive IFR
Visi :
Ceiling :
>= 8 km
>= 3000ft
5 to 8 km
1000 to 3000 ft
1500m to 5 km
500 to 1000 ft
800 to 1500m
200 to 500 ft
< 800m
< 200 ft
Symbols :   Thunderstorms  Fog  Heavy snow  Heavy precipitations  Wind > 20 kt







- Airport Elevation : 28 ft
- IATA code : HKG


VHHH - Hong Kong International

CURRENT METAR :
  • 161000Z 15017KT 9999 FEW025 24/18 Q1015 NOSIG

EXPIRED METARs :
  • 160930Z 15016KT 9999 FEW025 24/18 Q1015 NOSIG
  • 160900Z 15014KT 9999 FEW025 25/18 Q1015 NOSIG
  • 160830Z 16011KT 130V200 9999 FEW028 26/17 Q1015 NOSIG
  • 160800Z 16011KT 130V220 9999 FEW030 27/17 Q1015 NOSIG
  • 160730Z 15011KT 130V200 9999 FEW030 27/17 Q1015 NOSIG
  • 160707Z 15011KT 110V180 9999 FEW030 26/16 Q1015 NOSIG
  • 160700Z VRB07KT 9999 FEW030 26/17 Q1015 NOSIG

TAF TAF VHHH
Valid from the 16 at 06:00 until the 17 at 12:00 UTC


160500Z 1606/1712 26010KT 9999 FEW025 TX28/1606Z TX23/1706Z TN20/1622Z
BECMG 1608/1610 10010KT
BECMG 1622/1624 10015G25KT
VHHK FIR / Asia



MET'MAP, your aeronautical weather chart ! - Copyright ORBIFLY December 2007 - Disclaimer

ORBIFLY MET'MAP TEAM :

Programming & Development : Alexandra Zaïnal
Concept & Development : Baudouin d'Aumeries
Co-Development & Prog : Marc-Olivier Méhu
Technical & hardware support : Manuel Goepfert

Contact : metmap@orbifly.com




SOURCES & CREDITS :

   NOAA       Earth
Advisory